Time;durP1;ratioP1;P1;durP2;ratioP2;P2;SDS_P1;SDS_P2;PMS_P1;PMS_P2;Temp;Humidity;BMP_temperature;BMP_pressure;BME280_temperature;BME280_humidity;BME280_pressure;Samples;Min_cycle;Max_cycle;Signal;HPM_P1;HPM_P2
2023/06/05 00:00:57;;;;;;;7.63;3.70;;;;;;;18.62;100.00;102025.31;2089202;28;20568;-62
2023/06/05 00:01:57;;;;;;;7.80;3.90;;;;;;;18.62;100.00;102028.88;2088778;28;20224;-62
2023/06/05 00:02:58;;;;;;;8.73;3.90;;;;;;;18.56;100.00;102018.66;2088996;28;20234;-61
2023/06/05 00:03:59;;;;;;;6.60;3.87;;;;;;;18.60;100.00;102028.56;2089113;28;20191;-62
2023/06/05 00:05:01;;;;;;;9.07;3.40;;;;;;;18.58;100.00;102030.25;2089142;28;20526;-62
2023/06/05 00:06:01;;;;;;;9.43;3.60;;;;;;;18.56;100.00;102022.28;2089265;28;20203;-61
2023/06/05 00:07:02;;;;;;;8.10;3.80;;;;;;;18.11;100.00;101954.44;2088583;28;20422;-62
2023/06/05 00:08:03;;;;;;;6.57;3.63;;;;;;;18.58;100.00;102027.44;2089029;28;20176;-62
2023/06/05 00:09:06;;;;;;;4.97;3.13;;;;;;;18.58;100.00;102021.81;2088902;28;20419;-62
2023/06/05 00:10:08;;;;;;;6.57;3.30;;;;;;;18.56;100.00;102024.28;2089289;28;20176;-62
2023/06/05 00:11:08;;;;;;;6.13;3.37;;;;;;;18.55;100.00;102017.91;2088911;28;20435;-62
2023/06/05 00:12:08;;;;;;;7.43;3.43;;;;;;;18.50;100.00;102024.09;2088976;28;20439;-61
2023/06/05 00:13:09;;;;;;;7.03;3.80;;;;;;;18.49;100.00;102019.72;2088897;28;20269;-62
2023/06/05 00:14:09;;;;;;;7.67;3.20;;;;;;;18.02;100.00;101947.94;2090159;28;20572;-61
2023/06/05 00:15:10;;;;;;;7.93;3.73;;;;;;;18.48;100.00;102020.94;2094264;28;20189;-62
2023/06/05 00:16:10;;;;;;;11.10;4.00;;;;;;;18.36;100.00;102013.34;2088961;28;20184;-61
2023/06/05 00:17:11;;;;;;;11.67;3.83;;;;;;;18.31;100.00;102015.91;2088706;28;20589;-61
2023/06/05 00:18:11;;;;;;;5.50;3.70;;;;;;;18.31;100.00;102013.88;2089291;28;20736;-62
2023/06/05 00:19:12;;;;;;;9.43;3.80;;;;;;;18.32;100.00;102020.28;2087977;28;20225;-61
2023/06/05 00:20:13;;;;;;;8.17;3.40;;;;;;;18.25;100.00;102012.88;2088330;28;20220;-62
2023/06/05 00:21:13;;;;;;;11.67;4.10;;;;;;;18.23;100.00;102015.38;2089039;28;20192;-61
2023/06/05 00:22:14;;;;;;;8.40;4.30;;;;;;;18.23;100.00;102016.13;2088758;28;20192;-62
2023/06/05 00:23:14;;;;;;;7.73;4.20;;;;;;;17.86;100.00;101959.31;2089018;28;20192;-61
2023/06/05 00:24:15;;;;;;;9.43;4.03;;;;;;;18.20;100.00;102010.66;2088907;28;20180;-61
2023/06/05 00:25:15;;;;;;;11.80;4.30;;;;;;;18.21;100.00;102008.63;2088180;28;20569;-62
2023/06/05 00:26:16;;;;;;;10.27;3.97;;;;;;;18.06;100.00;101990.72;2080802;28;20247;-61
2023/06/05 00:27:16;;;;;;;11.50;4.37;;;;;;;18.11;100.00;102010.53;2080451;28;20185;-62
2023/06/05 00:28:17;;;;;;;6.13;3.47;;;;;;;17.78;100.00;101956.72;2087200;28;20192;-62
2023/06/05 00:29:18;;;;;;;6.17;4.30;;;;;;;18.08;100.00;102011.47;2083035;28;20272;-61
2023/06/05 00:30:18;;;;;;;7.60;4.00;;;;;;;18.12;100.00;102008.53;2087250;28;20966;-62
2023/06/05 00:31:21;;;;;;;9.50;4.33;;;;;;;18.09;100.00;101996.19;2088376;28;20645;-62
2023/06/05 00:32:21;;;;;;;7.50;3.97;;;;;;;18.10;100.00;101994.94;2088870;28;20641;-62
2023/06/05 00:33:22;;;;;;;8.40;3.70;;;;;;;18.11;100.00;101998.56;2089047;28;20427;-61
2023/06/05 00:34:22;;;;;;;7.93;3.80;;;;;;;18.11;100.00;102002.13;2088610;28;20547;-61
2023/06/05 00:35:23;;;;;;;8.03;3.60;;;;;;;18.12;100.00;102000.88;2080952;28;20235;-61
2023/06/05 00:36:23;;;;;;;8.23;4.03;;;;;;;18.09;100.00;101999.75;2087693;28;20194;-62
2023/06/05 00:37:24;;;;;;;7.13;4.13;;;;;;;18.10;100.00;101997.75;2082220;28;20197;-62
2023/06/05 00:38:26;;;;;;;7.90;4.23;;;;;;;17.66;100.00;101934.28;2085461;28;20195;-61
2023/06/05 00:39:26;;;;;;;10.73;4.90;;;;;;;18.11;100.00;102006.97;2088843;28;20438;-62
2023/06/05 00:40:26;;;;;;;7.63;4.30;;;;;;;18.12;100.00;102005.72;2088583;28;20431;-62
2023/06/05 00:41:27;;;;;;;8.27;4.57;;;;;;;18.13;100.00;102000.44;2088852;28;20358;-62
2023/06/05 00:42:27;;;;;;;7.70;5.33;;;;;;;18.14;100.00;102009.66;2088386;28;20348;-62
2023/06/05 00:43:28;;;;;;;7.67;4.90;;;;;;;18.16;100.00;102006.41;2080967;28;20180;-61
2023/06/05 00:44:28;;;;;;;7.80;5.83;;;;;;;18.15;100.00;101997.19;2088226;28;20548;-62
2023/06/05 00:45:29;;;;;;;11.07;6.00;;;;;;;18.11;100.00;101993.72;2089152;28;20242;-62
2023/06/05 00:46:29;;;;;;;8.90;6.40;;;;;;;18.13;100.00;101990.47;2088713;28;20234;-62
2023/06/05 00:47:31;;;;;;;16.47;6.00;;;;;;;18.12;100.00;101991.69;2088370;28;20266;-61
2023/06/05 00:48:34;;;;;;;11.73;5.77;;;;;;;18.19;100.00;101997.88;2085346;28;20250;-61
2023/06/05 00:49:34;;;;;;;11.33;5.43;;;;;;;18.18;100.00;101993.50;2082724;28;20554;-62
2023/06/05 00:50:36;;;;;;;8.43;5.70;;;;;;;18.21;100.00;102000.22;2087555;28;20516;-62
2023/06/05 00:51:41;;;;;;;8.30;5.57;;;;;;;17.49;100.00;101884.44;2080857;28;20173;-61
2023/06/05 00:52:42;;;;;;;12.20;5.53;;;;;;;18.17;100.00;102000.31;2088945;28;20415;-62
2023/06/05 00:53:46;;;;;;;9.50;5.73;;;;;;;17.75;100.00;101931.59;2081100;28;20435;-61
2023/06/05 00:54:47;;;;;;;8.33;5.67;;;;;;;17.82;100.00;101945.41;2087852;28;20438;-62
2023/06/05 00:55:48;;;;;;;8.23;4.63;;;;;;;17.48;100.00;101885.66;2082456;28;20885;-62
2023/06/05 00:56:49;;;;;;;7.70;5.10;;;;;;;17.60;100.00;101915.72;2085067;28;20543;-62
2023/06/05 00:57:49;;;;;;;8.87;4.67;;;;;;;18.18;100.00;101997.06;2088905;28;20204;-62
2023/06/05 00:58:50;;;;;;;8.27;4.90;;;;;;;18.20;100.00;102002.22;2088252;28;20639;-61
2023/06/05 00:59:50;;;;;;;8.57;4.57;;;;;;;17.81;100.00;101931.84;2087272;28;20684;-62
2023/06/05 01:00:51;;;;;;;7.33;4.10;;;;;;;18.22;100.00;101988.53;2080930;28;20544;-62
2023/06/05 01:01:54;;;;;;;14.87;4.60;;;;;;;18.23;100.00;101992.13;2088843;28;20250;-62
2023/06/05 01:02:56;;;;;;;9.63;4.03;;;;;;;18.23;100.00;101993.69;2088644;28;20279;-61
2023/06/05 01:03:57;;;;;;;9.90;4.47;;;;;;;18.11;100.00;101965.66;2081704;28;20972;-62
2023/06/05 01:04:58;;;;;;;12.53;4.47;;;;;;;18.23;100.00;101988.06;2080547;28;20443;-61
2023/06/05 01:06:03;;;;;;;10.20;4.57;;;;;;;18.27;100.00;101984.38;2085607;28;20188;-62
2023/06/05 01:07:03;;;;;;;12.47;4.33;;;;;;;18.26;100.00;101989.19;2084014;28;20185;-62
2023/06/05 01:08:05;;;;;;;11.83;4.50;;;;;;;18.23;100.00;101984.50;2080543;28;21006;-62
2023/06/05 01:09:08;;;;;;;9.20;4.43;;;;;;;18.23;100.00;101981.69;2082232;28;20180;-61
2023/06/05 01:10:09;;;;;;;12.70;4.00;;;;;;;18.14;100.00;101967.56;2090249;28;20453;-62
2023/06/05 01:11:20;;;;;;;12.37;4.60;;;;;;;18.23;100.00;101982.47;2089487;28;20630;-62
2023/06/05 01:12:28;;;;;;;14.60;4.33;;;;;;;18.23;100.00;101982.47;2090062;28;20904;-62
2023/06/05 01:13:31;;;;;;;11.63;4.30;;;;;;;18.26;100.00;101974.41;2090286;28;20786;-61
2023/06/05 01:14:35;;;;;;;16.93;4.40;;;;;;;18.24;100.00;101978.41;2090606;28;20824;-62
2023/06/05 01:15:37;;;;;;;10.83;4.40;;;;;;;18.27;100.00;101973.16;2090515;28;20422;-61
2023/06/05 01:16:39;;;;;;;10.60;3.73;;;;;;;17.57;100.00;101860.53;2089779;28;20451;-62
2023/06/05 01:17:40;;;;;;;6.97;3.80;;;;;;;18.24;100.00;101974.84;2083710;28;20467;-62
2023/06/05 01:18:45;;;;;;;8.43;3.67;;;;;;;18.26;100.00;101977.97;2081855;28;20522;-62
2023/06/05 01:19:49;;;;;;;10.23;3.90;;;;;;;17.67;100.00;101879.03;2082424;28;20165;-62
2023/06/05 01:20:50;;;;;;;9.77;3.60;;;;;;;18.06;100.00;101965.47;2086523;28;20531;-61
2023/06/05 01:21:51;;;;;;;12.67;4.10;;;;;;;17.96;100.00;101930.91;2090605;28;20513;-61
2023/06/05 01:22:52;;;;;;;10.30;4.03;;;;;;;18.27;100.00;101981.56;2090131;28;20440;-61
2023/06/05 01:23:53;;;;;;;14.50;4.37;;;;;;;18.21;100.00;101972.16;2089287;28;20184;-61
2023/06/05 01:24:53;;;;;;;9.73;4.20;;;;;;;18.23;100.00;101983.72;2082377;28;20654;-62
2023/06/05 01:25:57;;;;;;;12.60;4.40;;;;;;;17.80;100.00;101911.41;2090473;28;20915;-62
2023/06/05 01:27:15;;;;;;;9.97;4.30;;;;;;;18.22;100.00;101982.91;2089836;28;20687;-62
2023/06/05 01:28:20;;;;;;;12.13;4.10;;;;;;;18.18;100.00;101976.66;2082176;28;20495;-61
2023/06/05 01:29:28;;;;;;;10.87;3.90;;;;;;;18.17;100.00;101974.31;2082014;28;20444;-62
2023/06/05 01:30:34;;;;;;;7.00;4.10;;;;;;;18.14;100.00;101978.78;2082115;28;20530;-62
2023/06/05 01:31:36;;;;;;;10.37;4.10;;;;;;;18.11;100.00;101979.69;2089687;28;20437;-62
2023/06/05 01:32:44;;;;;;;9.33;3.90;;;;;;;18.11;100.00;101978.91;2083426;28;20541;-62
2023/06/05 01:33:51;;;;;;;7.80;3.73;;;;;;;18.08;100.00;101977.78;2088829;28;20454;-62
2023/06/05 01:34:53;;;;;;;12.37;4.33;;;;;;;18.08;100.00;101975.00;2083822;28;20489;-62
2023/06/05 01:35:55;;;;;;;7.63;4.10;;;;;;;18.08;100.00;101970.16;2082041;28;20446;-61
2023/06/05 01:36:56;;;;;;;8.60;3.70;;;;;;;18.08;100.00;101983.41;2081394;28;20958;-62
2023/06/05 01:37:59;;;;;;;10.10;3.97;;;;;;;18.09;100.00;101982.94;2081832;28;20482;-61
2023/06/05 01:39:01;;;;;;;9.97;4.17;;;;;;;17.00;100.00;101817.50;2081637;28;20791;-62
2023/06/05 01:40:06;;;;;;;6.60;3.93;;;;;;;18.07;100.00;101979.00;2082014;28;20439;-62
2023/06/05 01:41:08;;;;;;;9.17;4.13;;;;;;;18.04;100.00;101980.69;2088988;28;20509;-62
2023/06/05 01:42:10;;;;;;;6.13;3.83;;;;;;;18.05;100.00;101978.69;2081966;28;20416;-62
2023/06/05 01:43:12;;;;;;;7.57;3.70;;;;;;;17.70;100.00;101923.00;2082103;28;20417;-62
2023/06/05 01:44:15;;;;;;;9.17;4.30;;;;;;;18.03;100.00;101978.38;2089468;28;20425;-61
2023/06/05 01:45:17;;;;;;;7.63;4.43;;;;;;;18.00;100.00;101987.66;2090269;28;20535;-61
2023/06/05 01:46:21;;;;;;;9.60;4.43;;;;;;;17.99;100.00;101986.09;2090047;28;20439;-61
2023/06/05 01:47:22;;;;;;;10.90;4.70;;;;;;;17.96;100.00;101984.19;2089904;28;20460;-62
2023/06/05 01:48:27;;;;;;;8.33;4.17;;;;;;;17.98;100.00;101989.34;2089935;28;20971;-62
2023/06/05 01:49:27;;;;;;;8.83;4.50;;;;;;;17.94;100.00;101997.88;2090149;28;20774;-61
2023/06/05 01:50:33;;;;;;;7.67;4.20;;;;;;;17.97;100.00;102001.81;2089864;28;20432;-62
2023/06/05 01:51:33;;;;;;;9.13;4.47;;;;;;;17.97;100.00;102004.63;2090234;28;20530;-62
2023/06/05 01:52:39;;;;;;;10.07;4.00;;;;;;;17.98;100.00;101997.78;2089865;28;20485;-62
2023/06/05 01:53:39;;;;;;;11.93;4.70;;;;;;;17.97;100.00;101996.22;2089985;28;20652;-61
2023/06/05 01:54:42;;;;;;;14.87;4.93;;;;;;;17.96;100.00;101991.84;2082042;28;20781;-62
2023/06/05 01:55:43;;;;;;;10.23;6.17;;;;;;;17.96;100.00;101992.59;2089613;28;20661;-62
2023/06/05 01:56:44;;;;;;;9.67;6.80;;;;;;;17.50;100.00;101919.63;2089578;28;20459;-61
2023/06/05 01:57:44;;;;;;;10.37;5.93;;;;;;;17.94;100.00;101990.25;2090173;28;20483;-62
2023/06/05 01:58:47;;;;;;;12.43;6.37;;;;;;;17.61;100.00;101939.69;2089508;28;20287;-62
2023/06/05 01:59:49;;;;;;;11.47;6.43;;;;;;;17.89;100.00;101995.66;2089488;28;20652;-62
2023/06/05 02:00:49;;;;;;;10.07;6.80;;;;;;;17.91;100.00;101987.56;2089169;28;20475;-61
2023/06/05 02:01:50;;;;;;;11.53;7.60;;;;;;;17.88;100.00;101993.28;2083109;28;20421;-62
2023/06/05 02:02:50;;;;;;;9.70;6.97;;;;;;;17.88;100.00;101994.84;2089856;28;20181;-62
2023/06/05 02:03:53;;;;;;;10.77;7.50;;;;;;;17.88;100.00;101996.88;2089752;28;20186;-62
2023/06/05 02:04:53;;;;;;;13.97;7.93;;;;;;;17.90;100.00;102000.03;2089260;28;20664;-62
2023/06/05 02:05:54;;;;;;;12.67;7.70;;;;;;;17.88;100.00;101989.25;2090134;28;20782;-61
2023/06/05 02:06:54;;;;;;;12.73;6.80;;;;;;;17.87;100.00;101992.53;2089410;28;20198;-62
2023/06/05 02:07:58;;;;;;;10.90;6.87;;;;;;;17.87;100.00;101981.31;2089815;28;20673;-62
2023/06/05 02:08:58;;;;;;;10.83;6.00;;;;;;;16.73;100.00;101816.34;2089559;28;20176;-62
2023/06/05 02:10:04;;;;;;;11.07;6.27;;;;;;;17.77;100.00;101988.81;2089979;28;20428;-62
2023/06/05 02:11:10;;;;;;;11.60;6.50;;;;;;;17.39;100.00;101924.78;2088047;28;20162;-61
2023/06/05 02:12:14;;;;;;;13.90;6.77;;;;;;;17.80;100.00;101984.31;2082999;28;20498;-62
2023/06/05 02:13:18;;;;;;;11.20;5.83;;;;;;;17.73;100.00;101979.72;2089995;28;20426;-61
2023/06/05 02:14:19;;;;;;;14.87;6.90;;;;;;;17.78;100.00;101984.75;2089573;28;20415;-62
2023/06/05 02:15:20;;;;;;;12.90;6.23;;;;;;;17.77;100.00;101979.63;2089977;28;20417;-62
2023/06/05 02:16:20;;;;;;;13.43;6.30;;;;;;;17.75;100.00;101967.28;2089823;28;20695;-61
2023/06/05 02:17:21;;;;;;;16.23;6.30;;;;;;;17.82;100.00;101975.47;2089434;28;20220;-62
2023/06/05 02:18:25;;;;;;;10.70;6.60;;;;;;;17.77;100.00;101962.00;2089980;28;20183;-61
2023/06/05 02:19:26;;;;;;;11.07;6.70;;;;;;;17.82;100.00;101965.03;2089525;28;20444;-62
2023/06/05 02:20:27;;;;;;;18.93;6.90;;;;;;;17.81;100.00;101971.84;2089720;28;20426;-62
2023/06/05 02:21:27;;;;;;;10.57;7.00;;;;;;;17.82;100.00;101973.47;2087149;28;20642;-62
2023/06/05 02:22:28;;;;;;;8.43;6.47;;;;;;;17.83;100.00;101970.19;2082770;28;20871;-62
2023/06/05 02:23:29;;;;;;;9.97;7.57;;;;;;;17.78;100.00;101967.16;2090211;28;20543;-61
2023/06/05 02:24:29;;;;;;;12.80;8.53;;;;;;;17.78;100.00;101969.97;2081766;28;20185;-61
2023/06/05 02:25:30;;;;;;;17.67;9.30;;;;;;;17.80;100.00;101973.09;2088469;28;20521;-62
2023/06/05 02:26:30;;;;;;;12.67;8.30;;;;;;;17.76;100.00;101958.41;2089734;28;20192;-62
2023/06/05 02:27:30;;;;;;;13.73;8.57;;;;;;;17.79;100.00;101963.13;2084651;28;20196;-62
2023/06/05 02:28:31;;;;;;;11.30;8.20;;;;;;;17.81;100.00;101969.06;2084823;28;20572;-62
2023/06/05 02:29:32;;;;;;;11.80;8.63;;;;;;;17.81;100.00;101976.69;2087295;28;20195;-62
2023/06/05 02:30:33;;;;;;;11.90;8.37;;;;;;;17.80;100.00;101973.09;2082905;28;20177;-62
2023/06/05 02:31:33;;;;;;;16.63;9.60;;;;;;;17.40;100.00;101909.53;2089513;28;20457;-62
2023/06/05 02:32:35;;;;;;;14.53;9.47;;;;;;;17.80;100.00;101970.28;2081993;28;20605;-62
2023/06/05 02:33:36;;;;;;;14.47;9.87;;;;;;;17.85;100.00;101985.78;2089365;28;20193;-62
2023/06/05 02:34:37;;;;;;;18.37;11.30;;;;;;;16.89;100.00;101827.47;2089750;28;20423;-62
2023/06/05 02:35:40;;;;;;;13.33;10.60;;;;;;;17.80;100.00;101967.50;2089823;28;20388;-62
2023/06/05 02:36:42;;;;;;;14.60;10.47;;;;;;;17.86;100.00;101984.56;2084705;28;20848;-61
2023/06/05 02:37:46;;;;;;;13.37;9.53;;;;;;;16.63;100.00;101781.88;2085771;28;20894;-62
2023/06/05 02:38:49;;;;;;;11.20;9.73;;;;;;;17.88;100.00;101976.47;2089274;28;20930;-62
2023/06/05 02:39:50;;;;;;;15.97;10.10;;;;;;;17.87;100.00;101986.91;2089768;28;20424;-62
2023/06/05 02:40:50;;;;;;;14.20;10.97;;;;;;;17.67;100.00;101941.50;2089121;28;20431;-62
2023/06/05 02:41:50;;;;;;;15.00;10.97;;;;;;;17.72;100.00;101954.94;2089984;28;20174;-62
2023/06/05 02:42:51;;;;;;;18.20;12.10;;;;;;;17.92;100.00;101978.69;2089705;28;20185;-62
2023/06/05 02:43:51;;;;;;;21.30;13.67;;;;;;;17.90;100.00;101988.03;2089779;28;20198;-62
2023/06/05 02:44:52;;;;;;;19.70;15.13;;;;;;;17.92;100.00;101977.94;2089703;28;20254;-62
2023/06/05 02:45:52;;;;;;;18.33;14.40;;;;;;;17.91;100.00;101981.19;2084997;28;20290;-62
2023/06/05 02:46:52;;;;;;;19.50;15.60;;;;;;;17.91;100.00;101981.94;2084287;28;20187;-61
2023/06/05 02:47:53;;;;;;;16.60;11.97;;;;;;;17.92;100.00;101975.91;2087348;28;20197;-62
2023/06/05 02:48:53;;;;;;;17.23;12.90;;;;;;;17.92;100.00;101987.13;2082333;28;20196;-62
2023/06/05 02:49:54;;;;;;;18.80;12.37;;;;;;;17.80;100.00;101961.88;2089303;28;20729;-62
2023/06/05 02:50:54;;;;;;;21.53;12.30;;;;;;;17.77;100.00;101954.38;2081497;28;20289;-62
2023/06/05 02:51:55;;;;;;;22.67;12.90;;;;;;;17.92;100.00;101977.94;2088826;28;20264;-62
2023/06/05 02:52:55;;;;;;;19.80;13.27;;;;;;;17.87;100.00;101970.09;2083387;28;20683;-61
2023/06/05 02:53:57;;;;;;;16.03;13.10;;;;;;;17.78;100.00;101975.59;2086419;28;20204;-62
2023/06/05 02:54:57;;;;;;;21.27;12.70;;;;;;;17.66;100.00;101958.75;2085783;28;20217;-61
2023/06/05 02:56:01;;;;;;;16.53;11.83;;;;;;;17.86;100.00;101987.34;2083958;28;20543;-62
2023/06/05 02:57:01;;;;;;;13.73;11.77;;;;;;;17.82;100.00;101983.88;2086959;28;20188;-62
2023/06/05 02:58:02;;;;;;;14.27;10.33;;;;;;;17.88;100.00;101987.69;2082294;28;20460;-63
2023/06/05 02:59:03;;;;;;;14.20;9.60;;;;;;;17.85;100.00;101985.78;2089358;28;20208;-62
2023/06/05 03:00:07;;;;;;;11.53;8.30;;;;;;;17.92;100.00;101989.16;2081502;28;20206;-62
2023/06/05 03:01:08;;;;;;;15.37;8.37;;;;;;;17.91;100.00;101984.00;2088857;28;20949;-62
2023/06/05 03:02:09;;;;;;;14.50;7.50;;;;;;;17.93;100.00;101985.09;2089398;28;20884;-62
2023/06/05 03:03:16;;;;;;;10.67;6.83;;;;;;;17.81;100.00;101955.03;2089422;28;20184;-62
2023/06/05 03:04:21;;;;;;;14.40;7.70;;;;;;;17.96;100.00;101978.59;2089528;28;20936;-62
2023/06/05 03:05:24;;;;;;;10.43;6.70;;;;;;;17.97;100.00;101979.38;2089677;28;20474;-62
2023/06/05 03:06:27;;;;;;;11.17;6.47;;;;;;;17.79;100.00;101951.91;2089481;28;20586;-62
2023/06/05 03:07:29;;;;;;;11.87;6.53;;;;;;;17.97;100.00;101977.34;2089023;28;20517;-61
2023/06/05 03:08:34;;;;;;;15.97;6.70;;;;;;;17.89;100.00;101981.63;2089197;28;20924;-62
2023/06/05 03:09:35;;;;;;;13.80;6.60;;;;;;;17.91;100.00;101981.94;2089526;28;20410;-61
2023/06/05 03:10:35;;;;;;;13.33;6.50;;;;;;;17.93;100.00;101976.69;2089303;28;20406;-62
2023/06/05 03:11:35;;;;;;;13.33;6.23;;;;;;;17.96;100.00;101977.81;2089931;28;20705;-62
2023/06/05 03:12:36;;;;;;;7.77;5.83;;;;;;;17.96;100.00;101980.63;2089547;28;20199;-62
2023/06/05 03:13:36;;;;;;;12.20;5.93;;;;;;;17.93;100.00;101985.88;2089374;28;20199;-62
2023/06/05 03:14:37;;;;;;;9.73;5.53;;;;;;;17.88;100.00;101973.66;2089263;28;20185;-62
2023/06/05 03:15:37;;;;;;;11.80;5.40;;;;;;;17.98;100.00;101981.75;2089446;28;20197;-62
2023/06/05 03:16:41;;;;;;;11.27;5.27;;;;;;;17.95;100.00;101988.22;2089023;28;20690;-62
2023/06/05 03:17:42;;;;;;;9.90;5.70;;;;;;;17.94;100.00;101992.28;2089454;28;20199;-62
2023/06/05 03:18:43;;;;;;;9.30;5.17;;;;;;;17.93;100.00;101991.47;2088938;28;20460;-62
2023/06/05 03:19:43;;;;;;;9.90;5.37;;;;;;;17.12;100.00;101857.97;2089671;28;20255;-62
2023/06/05 03:20:43;;;;;;;9.97;5.30;;;;;;;17.96;100.00;101994.66;2081474;28;20237;-61
2023/06/05 03:21:44;;;;;;;12.57;5.37;;;;;;;17.93;100.00;101982.31;2088342;28;20189;-62
2023/06/05 03:22:45;;;;;;;10.30;4.73;;;;;;;17.83;100.00;101975.03;2089260;28;20342;-62
2023/06/05 03:23:45;;;;;;;8.93;5.00;;;;;;;17.94;100.00;101987.44;2089493;28;20191;-62
2023/06/05 03:24:46;;;;;;;11.73;5.00;;;;;;;17.91;100.00;101981.94;2089241;28;20439;-62
2023/06/05 03:25:46;;;;;;;9.03;5.27;;;;;;;17.92;100.00;101985.56;2089336;28;20175;-62
2023/06/05 03:26:47;;;;;;;9.33;5.23;;;;;;;17.92;100.00;101991.16;2088755;28;20730;-62
2023/06/05 03:27:49;;;;;;;11.40;5.10;;;;;;;17.82;100.00;101981.88;2089504;28;20181;-61
2023/06/05 03:28:50;;;;;;;10.63;4.93;;;;;;;17.93;100.00;101996.31;2089138;28;20192;-62
2023/06/05 03:29:50;;;;;;;13.67;5.00;;;;;;;17.93;100.00;101988.69;2089465;28;20452;-62
2023/06/05 03:30:50;;;;;;;11.20;4.40;;;;;;;17.94;100.00;101987.44;2089300;28;20433;-62
2023/06/05 03:31:51;;;;;;;10.03;4.57;;;;;;;17.98;100.00;101989.34;2089231;28;20227;-62
2023/06/05 03:32:52;;;;;;;13.53;4.93;;;;;;;17.98;100.00;101990.91;2088719;28;20787;-62
2023/06/05 03:33:53;;;;;;;11.70;4.97;;;;;;;17.96;100.00;101986.22;2088977;28;20278;-62
2023/06/05 03:34:53;;;;;;;8.47;5.30;;;;;;;17.95;100.00;101979.81;2089080;28;20438;-62
2023/06/05 03:35:55;;;;;;;12.57;6.80;;;;;;;17.94;100.00;101984.63;2088255;28;20762;-62
2023/06/05 03:36:58;;;;;;;11.10;8.93;;;;;;;17.94;100.00;101970.59;2080698;28;20185;-62
2023/06/05 03:37:59;;;;;;;18.13;13.73;;;;;;;17.42;100.00;101887.44;2089349;28;20458;-62
2023/06/05 03:39:00;;;;;;;14.27;12.87;;;;;;;17.96;100.00;101975.78;2088838;28;20532;-62
2023/06/05 03:40:00;;;;;;;18.87;11.80;;;;;;;17.97;100.00;101973.75;2082828;28;20195;-62
2023/06/05 03:41:00;;;;;;;13.67;12.27;;;;;;;17.82;100.00;101951.03;2088585;28;20241;-61
2023/06/05 03:42:02;;;;;;;13.30;11.03;;;;;;;17.96;100.00;101964.56;2089578;28;20257;-62
2023/06/05 03:43:02;;;;;;;17.47;10.87;;;;;;;18.02;100.00;101978.81;2089291;28;20203;-62
2023/06/05 03:44:03;;;;;;;15.17;10.87;;;;;;;18.03;100.00;101979.13;2089232;28;20504;-62
2023/06/05 03:45:04;;;;;;;12.13;9.37;;;;;;;18.08;100.00;101974.19;2089062;28;20255;-62
2023/06/05 03:46:05;;;;;;;10.67;8.90;;;;;;;18.01;100.00;101963.22;2089356;28;20410;-62
2023/06/05 03:47:06;;;;;;;12.60;9.10;;;;;;;18.06;100.00;101971.06;2088726;28;20180;-62
2023/06/05 03:48:09;;;;;;;15.47;8.43;;;;;;;17.50;100.00;101869.94;2089226;28;20569;-62
2023/06/05 03:49:09;;;;;;;13.30;7.77;;;;;;;18.02;100.00;101962.75;2088956;28;20923;-61
2023/06/05 03:50:11;;;;;;;13.17;7.93;;;;;;;18.21;100.00;101969.34;2089025;28;20975;-62
2023/06/05 03:51:13;;;;;;;12.47;9.07;;;;;;;18.28;100.00;101972.72;2085093;28;20234;-62
2023/06/05 03:52:14;;;;;;;17.33;10.67;;;;;;;18.31;100.00;101971.00;2083805;28;20438;-62
2023/06/05 03:53:15;;;;;;;15.73;9.50;;;;;;;18.23;100.00;101959.25;2089232;28;20803;-62
2023/06/05 03:54:16;;;;;;;16.27;9.33;;;;;;;18.36;100.00;101964.81;2088916;28;20418;-61
2023/06/05 03:55:17;;;;;;;12.13;9.40;;;;;;;18.35;100.00;101964.06;2089117;28;20187;-61
2023/06/05 03:56:17;;;;;;;11.80;8.43;;;;;;;18.46;100.00;101972.09;2080969;28;20411;-62
2023/06/05 03:57:20;;;;;;;16.37;8.27;;;;;;;18.40;100.00;101960.69;2087781;28;20184;-62
2023/06/05 03:58:20;;;;;;;12.57;7.10;;;;;;;18.49;100.00;101974.00;2089057;28;20211;-62
2023/06/05 03:59:23;;;;;;;11.53;6.33;;;;;;;18.56;100.00;101973.75;2083749;28;20431;-62
2023/06/05 04:00:24;;;;;;;10.70;6.57;;;;;;;18.62;100.00;101969.16;2085245;28;20664;-61
2023/06/05 04:01:25;;;;;;;11.80;6.40;;;;;;;18.66;100.00;101969.78;2089251;28;20886;-62
2023/06/05 04:02:25;;;;;;;10.27;6.20;;;;;;;17.73;100.00;101815.53;2089005;28;20169;-62
2023/06/05 04:03:27;;;;;;;8.93;6.17;;;;;;;18.74;100.00;101965.50;2088376;28;20173;-61
2023/06/05 04:04:27;;;;;;;12.43;6.70;;;;;;;18.78;100.00;101977.38;2081157;28;20612;-62
2023/06/05 04:05:27;;;;;;;10.37;5.63;;;;;;;18.80;100.00;101970.06;2089072;28;20611;-62
2023/06/05 04:06:28;;;;;;;9.33;5.10;;;;;;;18.83;100.00;101960.72;2089024;28;20184;-62
2023/06/05 04:07:28;;;;;;;11.70;5.00;;;;;;;18.86;100.00;101970.25;2088668;28;20247;-62
2023/06/05 04:08:29;;;;;;;8.33;5.00;;;;;;;18.90;100.00;101968.91;2088929;28;20567;-62
2023/06/05 04:09:29;;;;;;;8.83;4.50;;;;;;;18.93;100.00;101967.19;2085474;28;20189;-61
2023/06/05 04:10:30;;;;;;;12.50;4.37;;;;;;;18.91;100.00;101970.47;2083238;28;20403;-62
2023/06/05 04:11:31;;;;;;;6.77;3.10;;;;;;;18.84;100.00;101967.91;2089178;28;20177;-62
2023/06/05 04:12:32;;;;;;;10.43;4.57;;;;;;;18.78;100.00;101966.16;2089010;28;20563;-62
2023/06/05 04:13:32;;;;;;;9.07;3.90;;;;;;;18.76;100.00;101965.81;2089273;28;20517;-62
2023/06/05 04:14:33;;;;;;;7.67;3.93;;;;;;;18.71;100.00;101967.19;2081499;28;20197;-62
2023/06/05 04:15:33;;;;;;;9.50;4.30;;;;;;;18.71;100.00;101966.38;2087145;28;20181;-62
2023/06/05 04:16:34;;;;;;;9.33;3.93;;;;;;;18.04;100.00;101862.88;2088914;28;20654;-62
2023/06/05 04:17:34;;;;;;;10.07;3.70;;;;;;;18.69;100.00;101960.47;2088716;28;20199;-62
2023/06/05 04:18:35;;;;;;;10.73;4.40;;;;;;;18.67;100.00;101962.94;2088868;28;20679;-62
2023/06/05 04:19:36;;;;;;;8.07;4.10;;;;;;;18.73;100.00;101967.50;2089048;28;20173;-62
2023/06/05 04:20:36;;;;;;;10.07;4.10;;;;;;;18.75;100.00;101965.03;2088792;28;20176;-64
2023/06/05 04:21:37;;;;;;;17.00;4.30;;;;;;;18.84;100.00;101964.31;2089547;28;20671;-57
2023/06/05 04:22:38;;;;;;;5.27;2.70;;;;;;;19.09;100.00;101970.56;2089833;28;20176;-57
2023/06/05 04:23:39;;;;;;;9.23;2.77;;;;;;;19.84;100.00;101977.69;2090711;28;20406;-57
2023/06/05 04:24:40;;;;;;;5.83;2.07;;;;;;;20.38;100.00;101972.22;2089807;28;20179;-57
2023/06/05 04:25:45;;;;;;;7.43;3.80;;;;;;;20.29;100.00;101935.59;2089398;28;20414;-57
2023/06/05 04:26:47;;;;;;;8.37;3.03;;;;;;;20.27;100.00;101941.69;2087898;28;20473;-57
2023/06/05 04:27:50;;;;;;;7.37;2.90;;;;;;;20.15;100.00;101931.38;2089290;28;20439;-57
2023/06/05 04:28:51;;;;;;;9.87;3.33;;;;;;;20.11;100.00;101938.41;2089374;28;20425;-57
2023/06/05 04:29:52;;;;;;;8.90;3.00;;;;;;;20.02;100.00;101938.34;2081190;28;20427;-56
2023/06/05 04:30:53;;;;;;;6.03;2.90;;;;;;;19.09;100.00;101792.78;2081303;28;20794;-57
2023/06/05 04:31:53;;;;;;;5.57;2.77;;;;;;;20.02;100.00;101924.28;2086836;28;20533;-56
2023/06/05 04:32:54;;;;;;;8.37;3.43;;;;;;;19.98;100.00;101926.47;2088865;28;20176;-57
2023/06/05 04:33:54;;;;;;;7.63;3.10;;;;;;;20.02;100.00;101932.72;2088928;28;20192;-59
2023/06/05 04:34:55;;;;;;;10.20;3.60;;;;;;;19.98;100.00;101934.91;2089303;28;20211;-57
2023/06/05 04:35:55;;;;;;;7.27;3.40;;;;;;;20.01;100.00;101914.28;2089349;28;20180;-57
2023/06/05 04:36:56;;;;;;;7.17;3.47;;;;;;;20.15;100.00;101936.22;2089219;28;20180;-57
2023/06/05 04:37:56;;;;;;;8.13;2.97;;;;;;;20.39;100.00;101935.16;2087894;28;20216;-58
2023/06/05 04:38:56;;;;;;;6.67;3.57;;;;;;;20.67;100.00;101933.88;2083074;28;20536;-58
2023/06/05 04:39:58;;;;;;;14.43;5.70;;;;;;;20.78;100.00;101919.34;2087235;28;20192;-58
2023/06/05 04:40:59;;;;;;;10.47;3.47;;;;;;;21.08;100.00;101933.22;2086809;28;20195;-58